sensor_id;sensor_type;location;lat;lon;timestamp;P1;durP1;ratioP1;P2;durP2;ratioP2
76495;SDS011;65329;52.544;4.662;2023-10-19T00:00:16;7.93;;;5.18;;
76495;SDS011;65329;52.544;4.662;2023-10-19T00:02:46;8.48;;;5.97;;
76495;SDS011;65329;52.544;4.662;2023-10-19T00:05:13;7.60;;;5.18;;
76495;SDS011;65329;52.544;4.662;2023-10-19T00:07:41;8.80;;;5.80;;
76495;SDS011;65329;52.544;4.662;2023-10-19T00:10:08;9.88;;;6.47;;
76495;SDS011;65329;52.544;4.662;2023-10-19T00:12:36;8.75;;;5.95;;
76495;SDS011;65329;52.544;4.662;2023-10-19T00:15:03;7.70;;;4.63;;
76495;SDS011;65329;52.544;4.662;2023-10-19T00:17:31;9.18;;;6.15;;
76495;SDS011;65329;52.544;4.662;2023-10-19T00:19:59;10.60;;;6.32;;
76495;SDS011;65329;52.544;4.662;2023-10-19T00:22:49;9.45;;;6.03;;
76495;SDS011;65329;52.544;4.662;2023-10-19T00:25:15;9.60;;;6.35;;
76495;SDS011;65329;52.544;4.662;2023-10-19T00:27:42;11.02;;;6.15;;
76495;SDS011;65329;52.544;4.662;2023-10-19T00:30:10;10.23;;;6.03;;
76495;SDS011;65329;52.544;4.662;2023-10-19T00:32:37;8.88;;;6.03;;
76495;SDS011;65329;52.544;4.662;2023-10-19T00:35:05;9.85;;;5.88;;
76495;SDS011;65329;52.544;4.662;2023-10-19T00:37:55;9.55;;;6.05;;
76495;SDS011;65329;52.544;4.662;2023-10-19T00:40:26;11.02;;;6.97;;
76495;SDS011;65329;52.544;4.662;2023-10-19T00:43:03;10.07;;;6.20;;
76495;SDS011;65329;52.544;4.662;2023-10-19T00:45:35;10.07;;;6.53;;
76495;SDS011;65329;52.544;4.662;2023-10-19T00:48:09;10.43;;;6.35;;
76495;SDS011;65329;52.544;4.662;2023-10-19T00:50:37;8.93;;;6.47;;
76495;SDS011;65329;52.544;4.662;2023-10-19T00:53:04;11.70;;;6.82;;
76495;SDS011;65329;52.544;4.662;2023-10-19T00:55:34;8.50;;;5.70;;
76495;SDS011;65329;52.544;4.662;2023-10-19T00:58:02;10.35;;;6.63;;
76495;SDS011;65329;52.544;4.662;2023-10-19T01:00:36;11.88;;;7.70;;
76495;SDS011;65329;52.544;4.662;2023-10-19T01:03:10;12.80;;;8.38;;
76495;SDS011;65329;52.544;4.662;2023-10-19T01:05:37;12.27;;;8.23;;
76495;SDS011;65329;52.544;4.662;2023-10-19T01:08:04;10.32;;;6.70;;
76495;SDS011;65329;52.544;4.662;2023-10-19T01:10:51;10.75;;;6.70;;
76495;SDS011;65329;52.544;4.662;2023-10-19T01:13:19;16.23;;;8.25;;
76495;SDS011;65329;52.544;4.662;2023-10-19T01:15:54;14.40;;;8.70;;
76495;SDS011;65329;52.544;4.662;2023-10-19T01:18:21;15.38;;;9.38;;
76495;SDS011;65329;52.544;4.662;2023-10-19T01:20:48;14.07;;;9.15;;
76495;SDS011;65329;52.544;4.662;2023-10-19T01:23:21;15.73;;;8.95;;
76495;SDS011;65329;52.544;4.662;2023-10-19T01:25:54;13.25;;;8.65;;
76495;SDS011;65329;52.544;4.662;2023-10-19T01:30:55;13.43;;;8.70;;
76495;SDS011;65329;52.544;4.662;2023-10-19T01:33:22;14.05;;;9.63;;
76495;SDS011;65329;52.544;4.662;2023-10-19T01:35:49;16.00;;;9.05;;
76495;SDS011;65329;52.544;4.662;2023-10-19T01:38:36;14.35;;;9.43;;
76495;SDS011;65329;52.544;4.662;2023-10-19T01:41:03;14.48;;;9.00;;
76495;SDS011;65329;52.544;4.662;2023-10-19T01:43:49;12.68;;;8.65;;
76495;SDS011;65329;52.544;4.662;2023-10-19T01:46:17;14.02;;;8.73;;
76495;SDS011;65329;52.544;4.662;2023-10-19T01:48:52;15.10;;;9.10;;
76495;SDS011;65329;52.544;4.662;2023-10-19T01:51:26;14.43;;;8.85;;
76495;SDS011;65329;52.544;4.662;2023-10-19T01:53:53;12.52;;;7.82;;
76495;SDS011;65329;52.544;4.662;2023-10-19T01:56:22;13.52;;;8.10;;
76495;SDS011;65329;52.544;4.662;2023-10-19T01:58:49;12.82;;;7.93;;
76495;SDS011;65329;52.544;4.662;2023-10-19T02:01:18;11.95;;;7.85;;
76495;SDS011;65329;52.544;4.662;2023-10-19T02:03:55;12.70;;;8.05;;
76495;SDS011;65329;52.544;4.662;2023-10-19T02:08:57;12.38;;;7.55;;
76495;SDS011;65329;52.544;4.662;2023-10-19T02:11:27;12.70;;;8.32;;
76495;SDS011;65329;52.544;4.662;2023-10-19T02:13:56;13.77;;;8.35;;
76495;SDS011;65329;52.544;4.662;2023-10-19T02:16:26;13.60;;;8.48;;
76495;SDS011;65329;52.544;4.662;2023-10-19T02:18:56;12.98;;;8.65;;
76495;SDS011;65329;52.544;4.662;2023-10-19T02:21:23;13.27;;;8.20;;
76495;SDS011;65329;52.544;4.662;2023-10-19T02:23:53;12.95;;;8.18;;
76495;SDS011;65329;52.544;4.662;2023-10-19T02:26:20;13.52;;;7.97;;
76495;SDS011;65329;52.544;4.662;2023-10-19T02:28:52;12.85;;;7.70;;
76495;SDS011;65329;52.544;4.662;2023-10-19T02:31:19;13.63;;;8.07;;
76495;SDS011;65329;52.544;4.662;2023-10-19T02:33:53;13.68;;;9.23;;
76495;SDS011;65329;52.544;4.662;2023-10-19T02:36:26;13.30;;;8.07;;
76495;SDS011;65329;52.544;4.662;2023-10-19T02:38:58;13.85;;;8.20;;
76495;SDS011;65329;52.544;4.662;2023-10-19T02:41:26;13.60;;;8.80;;
76495;SDS011;65329;52.544;4.662;2023-10-19T02:43:53;15.13;;;9.02;;
76495;SDS011;65329;52.544;4.662;2023-10-19T02:46:47;16.20;;;9.15;;
76495;SDS011;65329;52.544;4.662;2023-10-19T02:49:17;17.25;;;9.27;;
76495;SDS011;65329;52.544;4.662;2023-10-19T02:51:48;15.05;;;9.40;;
76495;SDS011;65329;52.544;4.662;2023-10-19T02:54:22;15.95;;;9.90;;
76495;SDS011;65329;52.544;4.662;2023-10-19T02:56:51;16.75;;;9.82;;
76495;SDS011;65329;52.544;4.662;2023-10-19T02:59:20;16.77;;;9.82;;
76495;SDS011;65329;52.544;4.662;2023-10-19T03:04:18;20.35;;;10.90;;
76495;SDS011;65329;52.544;4.662;2023-10-19T03:06:45;19.02;;;10.20;;
76495;SDS011;65329;52.544;4.662;2023-10-19T03:09:12;18.77;;;10.05;;
76495;SDS011;65329;52.544;4.662;2023-10-19T03:11:48;16.40;;;9.68;;
76495;SDS011;65329;52.544;4.662;2023-10-19T03:14:23;19.00;;;10.98;;
76495;SDS011;65329;52.544;4.662;2023-10-19T03:16:53;21.67;;;10.68;;
76495;SDS011;65329;52.544;4.662;2023-10-19T03:19:23;19.48;;;10.48;;
76495;SDS011;65329;52.544;4.662;2023-10-19T03:21:52;21.42;;;10.45;;
76495;SDS011;65329;52.544;4.662;2023-10-19T03:24:19;22.35;;;11.25;;
76495;SDS011;65329;52.544;4.662;2023-10-19T03:27:05;18.02;;;10.48;;
76495;SDS011;65329;52.544;4.662;2023-10-19T03:29:50;19.88;;;10.88;;
76495;SDS011;65329;52.544;4.662;2023-10-19T03:32:22;22.40;;;12.10;;
76495;SDS011;65329;52.544;4.662;2023-10-19T03:34:54;20.35;;;11.70;;
76495;SDS011;65329;52.544;4.662;2023-10-19T03:37:23;25.67;;;13.23;;
76495;SDS011;65329;52.544;4.662;2023-10-19T03:39:53;21.50;;;11.30;;
76495;SDS011;65329;52.544;4.662;2023-10-19T03:42:23;21.45;;;12.30;;
76495;SDS011;65329;52.544;4.662;2023-10-19T03:44:59;20.02;;;12.10;;
76495;SDS011;65329;52.544;4.662;2023-10-19T03:47:28;22.10;;;12.20;;
76495;SDS011;65329;52.544;4.662;2023-10-19T03:50:02;22.25;;;12.00;;
76495;SDS011;65329;52.544;4.662;2023-10-19T03:52:41;22.55;;;11.70;;
76495;SDS011;65329;52.544;4.662;2023-10-19T03:55:08;20.92;;;12.07;;
76495;SDS011;65329;52.544;4.662;2023-10-19T03:57:40;21.95;;;11.65;;
76495;SDS011;65329;52.544;4.662;2023-10-19T04:00:08;19.98;;;10.85;;
76495;SDS011;65329;52.544;4.662;2023-10-19T04:02:44;16.77;;;9.43;;
76495;SDS011;65329;52.544;4.662;2023-10-19T04:05:12;15.18;;;9.45;;
76495;SDS011;65329;52.544;4.662;2023-10-19T04:07:48;16.67;;;9.40;;
76495;SDS011;65329;52.544;4.662;2023-10-19T04:10:22;17.13;;;9.05;;
76495;SDS011;65329;52.544;4.662;2023-10-19T04:13:12;17.55;;;9.65;;
76495;SDS011;65329;52.544;4.662;2023-10-19T04:15:40;15.70;;;8.60;;
76495;SDS011;65329;52.544;4.662;2023-10-19T04:18:08;15.90;;;8.63;;
76495;SDS011;65329;52.544;4.662;2023-10-19T04:20:37;17.08;;;8.75;;
76495;SDS011;65329;52.544;4.662;2023-10-19T04:23:22;19.85;;;8.40;;
76495;SDS011;65329;52.544;4.662;2023-10-19T04:25:54;16.58;;;8.45;;
76495;SDS011;65329;52.544;4.662;2023-10-19T04:28:23;18.58;;;8.93;;
76495;SDS011;65329;52.544;4.662;2023-10-19T04:31:08;15.60;;;6.93;;
76495;SDS011;65329;52.544;4.662;2023-10-19T04:36:09;12.05;;;5.95;;
76495;SDS011;65329;52.544;4.662;2023-10-19T04:38:37;11.07;;;6.47;;
76495;SDS011;65329;52.544;4.662;2023-10-19T04:41:08;16.25;;;7.05;;
76495;SDS011;65329;52.544;4.662;2023-10-19T04:43:35;12.07;;;6.78;;
76495;SDS011;65329;52.544;4.662;2023-10-19T04:46:04;14.82;;;7.45;;
76495;SDS011;65329;52.544;4.662;2023-10-19T04:48:34;12.52;;;6.53;;
76495;SDS011;65329;52.544;4.662;2023-10-19T04:51:02;12.13;;;6.38;;
76495;SDS011;65329;52.544;4.662;2023-10-19T04:53:31;11.52;;;6.43;;
76495;SDS011;65329;52.544;4.662;2023-10-19T04:55:58;11.38;;;6.28;;
76495;SDS011;65329;52.544;4.662;2023-10-19T04:58:30;10.45;;;5.70;;
76495;SDS011;65329;52.544;4.662;2023-10-19T05:00:57;9.18;;;5.10;;
76495;SDS011;65329;52.544;4.662;2023-10-19T05:03:25;10.82;;;5.30;;
76495;SDS011;65329;52.544;4.662;2023-10-19T05:05:52;7.72;;;4.63;;
76495;SDS011;65329;52.544;4.662;2023-10-19T05:08:19;8.68;;;4.90;;
76495;SDS011;65329;52.544;4.662;2023-10-19T05:10:46;8.98;;;4.50;;
76495;SDS011;65329;52.544;4.662;2023-10-19T05:13:13;10.93;;;4.13;;
76495;SDS011;65329;52.544;4.662;2023-10-19T05:15:40;8.93;;;3.38;;
76495;SDS011;65329;52.544;4.662;2023-10-19T05:18:09;6.97;;;3.47;;
76495;SDS011;65329;52.544;4.662;2023-10-19T05:20:37;6.85;;;3.70;;
76495;SDS011;65329;52.544;4.662;2023-10-19T05:23:07;5.72;;;3.53;;
76495;SDS011;65329;52.544;4.662;2023-10-19T05:25:35;7.88;;;3.83;;
76495;SDS011;65329;52.544;4.662;2023-10-19T05:28:04;7.22;;;3.70;;
76495;SDS011;65329;52.544;4.662;2023-10-19T05:30:32;6.10;;;2.30;;
76495;SDS011;65329;52.544;4.662;2023-10-19T05:32:59;9.10;;;2.80;;
76495;SDS011;65329;52.544;4.662;2023-10-19T05:35:28;7.88;;;2.38;;
76495;SDS011;65329;52.544;4.662;2023-10-19T05:37:56;4.82;;;2.20;;
76495;SDS011;65329;52.544;4.662;2023-10-19T05:40:26;4.82;;;1.92;;
76495;SDS011;65329;52.544;4.662;2023-10-19T05:42:59;8.13;;;2.40;;
76495;SDS011;65329;52.544;4.662;2023-10-19T05:45:27;3.55;;;1.75;;
76495;SDS011;65329;52.544;4.662;2023-10-19T05:47:55;3.28;;;1.65;;
76495;SDS011;65329;52.544;4.662;2023-10-19T05:50:22;3.88;;;2.22;;
76495;SDS011;65329;52.544;4.662;2023-10-19T05:52:50;4.47;;;1.55;;
76495;SDS011;65329;52.544;4.662;2023-10-19T05:55:21;3.25;;;1.88;;
76495;SDS011;65329;52.544;4.662;2023-10-19T05:57:48;5.25;;;1.88;;
76495;SDS011;65329;52.544;4.662;2023-10-19T06:00:15;6.57;;;1.67;;
76495;SDS011;65329;52.544;4.662;2023-10-19T06:02:44;7.18;;;1.77;;
76495;SDS011;65329;52.544;4.662;2023-10-19T06:05:12;4.53;;;1.73;;
76495;SDS011;65329;52.544;4.662;2023-10-19T06:07:43;3.70;;;1.67;;
76495;SDS011;65329;52.544;4.662;2023-10-19T06:10:13;4.78;;;2.05;;
76495;SDS011;65329;52.544;4.662;2023-10-19T06:12:43;3.78;;;1.85;;
76495;SDS011;65329;52.544;4.662;2023-10-19T06:15:10;4.95;;;1.60;;
76495;SDS011;65329;52.544;4.662;2023-10-19T06:17:40;4.25;;;1.90;;
76495;SDS011;65329;52.544;4.662;2023-10-19T06:20:08;8.30;;;1.50;;
76495;SDS011;65329;52.544;4.662;2023-10-19T06:22:35;3.55;;;1.20;;
76495;SDS011;65329;52.544;4.662;2023-10-19T06:25:03;2.40;;;1.42;;
76495;SDS011;65329;52.544;4.662;2023-10-19T06:27:32;3.45;;;1.45;;
76495;SDS011;65329;52.544;4.662;2023-10-19T06:29:59;3.15;;;1.30;;
76495;SDS011;65329;52.544;4.662;2023-10-19T06:32:27;4.72;;;2.05;;
76495;SDS011;65329;52.544;4.662;2023-10-19T06:34:57;5.43;;;1.70;;
76495;SDS011;65329;52.544;4.662;2023-10-19T06:37:26;3.85;;;1.45;;
76495;SDS011;65329;52.544;4.662;2023-10-19T06:39:53;6.03;;;1.67;;
76495;SDS011;65329;52.544;4.662;2023-10-19T06:42:20;2.97;;;1.25;;
76495;SDS011;65329;52.544;4.662;2023-10-19T06:44:48;6.22;;;1.85;;
76495;SDS011;65329;52.544;4.662;2023-10-19T06:47:16;3.83;;;1.88;;
76495;SDS011;65329;52.544;4.662;2023-10-19T06:49:43;4.43;;;1.90;;
76495;SDS011;65329;52.544;4.662;2023-10-19T06:52:10;4.93;;;2.20;;
76495;SDS011;65329;52.544;4.662;2023-10-19T06:54:38;6.63;;;2.25;;
76495;SDS011;65329;52.544;4.662;2023-10-19T06:57:05;2.88;;;1.75;;
76495;SDS011;65329;52.544;4.662;2023-10-19T06:59:32;4.15;;;2.05;;
76495;SDS011;65329;52.544;4.662;2023-10-19T07:01:59;3.15;;;1.48;;
76495;SDS011;65329;52.544;4.662;2023-10-19T07:04:29;5.75;;;1.83;;
76495;SDS011;65329;52.544;4.662;2023-10-19T07:06:58;7.72;;;2.00;;
76495;SDS011;65329;52.544;4.662;2023-10-19T07:09:25;3.35;;;1.60;;
76495;SDS011;65329;52.544;4.662;2023-10-19T07:11:52;1.88;;;1.30;;
76495;SDS011;65329;52.544;4.662;2023-10-19T07:14:23;2.67;;;1.92;;
76495;SDS011;65329;52.544;4.662;2023-10-19T07:16:50;2.65;;;1.58;;
76495;SDS011;65329;52.544;4.662;2023-10-19T07:19:18;6.22;;;1.70;;
76495;SDS011;65329;52.544;4.662;2023-10-19T07:21:45;5.38;;;1.80;;
76495;SDS011;65329;52.544;4.662;2023-10-19T07:24:16;4.13;;;1.83;;
76495;SDS011;65329;52.544;4.662;2023-10-19T07:26:45;6.53;;;1.73;;
76495;SDS011;65329;52.544;4.662;2023-10-19T07:29:20;3.47;;;2.00;;
76495;SDS011;65329;52.544;4.662;2023-10-19T07:31:47;6.32;;;1.50;;
76495;SDS011;65329;52.544;4.662;2023-10-19T07:34:14;4.03;;;1.63;;
76495;SDS011;65329;52.544;4.662;2023-10-19T07:36:45;8.48;;;1.70;;
76495;SDS011;65329;52.544;4.662;2023-10-19T07:39:11;5.07;;;1.50;;
76495;SDS011;65329;52.544;4.662;2023-10-19T07:41:45;7.00;;;2.08;;
76495;SDS011;65329;52.544;4.662;2023-10-19T07:44:12;5.38;;;1.80;;
76495;SDS011;65329;52.544;4.662;2023-10-19T07:46:39;3.38;;;1.73;;
76495;SDS011;65329;52.544;4.662;2023-10-19T07:49:06;3.72;;;1.45;;
76495;SDS011;65329;52.544;4.662;2023-10-19T07:51:32;7.10;;;2.22;;
76495;SDS011;65329;52.544;4.662;2023-10-19T07:53:59;6.88;;;1.60;;
76495;SDS011;65329;52.544;4.662;2023-10-19T07:56:26;5.70;;;1.63;;
76495;SDS011;65329;52.544;4.662;2023-10-19T07:58:53;7.88;;;1.50;;
76495;SDS011;65329;52.544;4.662;2023-10-19T08:01:19;7.15;;;1.50;;
76495;SDS011;65329;52.544;4.662;2023-10-19T08:03:46;6.43;;;1.80;;
76495;SDS011;65329;52.544;4.662;2023-10-19T08:06:13;6.70;;;1.50;;
76495;SDS011;65329;52.544;4.662;2023-10-19T08:08:40;5.07;;;1.55;;
76495;SDS011;65329;52.544;4.662;2023-10-19T08:11:08;5.13;;;2.08;;
76495;SDS011;65329;52.544;4.662;2023-10-19T08:13:35;4.88;;;1.85;;
76495;SDS011;65329;52.544;4.662;2023-10-19T08:16:02;4.85;;;1.70;;
76495;SDS011;65329;52.544;4.662;2023-10-19T08:18:30;4.35;;;1.85;;
76495;SDS011;65329;52.544;4.662;2023-10-19T08:20:57;5.63;;;1.80;;
76495;SDS011;65329;52.544;4.662;2023-10-19T08:23:24;4.43;;;2.13;;
76495;SDS011;65329;52.544;4.662;2023-10-19T08:25:54;4.68;;;1.75;;
76495;SDS011;65329;52.544;4.662;2023-10-19T08:28:23;3.05;;;1.73;;
76495;SDS011;65329;52.544;4.662;2023-10-19T08:30:50;3.88;;;1.45;;
76495;SDS011;65329;52.544;4.662;2023-10-19T08:33:29;4.50;;;1.95;;
76495;SDS011;65329;52.544;4.662;2023-10-19T08:35:56;4.13;;;1.88;;
76495;SDS011;65329;52.544;4.662;2023-10-19T08:38:24;3.00;;;1.90;;
76495;SDS011;65329;52.544;4.662;2023-10-19T08:40:52;6.35;;;2.15;;
76495;SDS011;65329;52.544;4.662;2023-10-19T08:43:19;3.15;;;1.33;;
76495;SDS011;65329;52.544;4.662;2023-10-19T08:45:48;5.75;;;2.03;;
76495;SDS011;65329;52.544;4.662;2023-10-19T08:48:15;3.00;;;1.65;;
76495;SDS011;65329;52.544;4.662;2023-10-19T08:50:43;3.72;;;1.90;;
76495;SDS011;65329;52.544;4.662;2023-10-19T08:53:10;4.82;;;1.80;;
76495;SDS011;65329;52.544;4.662;2023-10-19T08:55:40;3.40;;;1.80;;
76495;SDS011;65329;52.544;4.662;2023-10-19T08:58:16;10.07;;;2.30;;
76495;SDS011;65329;52.544;4.662;2023-10-19T09:00:46;6.18;;;2.03;;
76495;SDS011;65329;52.544;4.662;2023-10-19T09:03:18;4.05;;;1.80;;
76495;SDS011;65329;52.544;4.662;2023-10-19T09:05:45;7.53;;;1.90;;
76495;SDS011;65329;52.544;4.662;2023-10-19T09:08:17;5.38;;;1.58;;
76495;SDS011;65329;52.544;4.662;2023-10-19T09:10:45;6.50;;;2.00;;
76495;SDS011;65329;52.544;4.662;2023-10-19T09:13:12;6.25;;;2.03;;
76495;SDS011;65329;52.544;4.662;2023-10-19T09:15:41;4.75;;;1.65;;
76495;SDS011;65329;52.544;4.662;2023-10-19T09:18:18;5.47;;;2.30;;
76495;SDS011;65329;52.544;4.662;2023-10-19T09:23:31;5.68;;;2.05;;
76495;SDS011;65329;52.544;4.662;2023-10-19T09:25:58;9.75;;;2.50;;
76495;SDS011;65329;52.544;4.662;2023-10-19T09:28:29;5.55;;;2.25;;
76495;SDS011;65329;52.544;4.662;2023-10-19T09:30:56;6.53;;;2.20;;
76495;SDS011;65329;52.544;4.662;2023-10-19T09:33:24;6.35;;;2.22;;
76495;SDS011;65329;52.544;4.662;2023-10-19T09:35:51;6.90;;;2.45;;
76495;SDS011;65329;52.544;4.662;2023-10-19T09:38:23;5.22;;;2.30;;
76495;SDS011;65329;52.544;4.662;2023-10-19T09:40:51;5.40;;;2.17;;
76495;SDS011;65329;52.544;4.662;2023-10-19T09:43:35;3.88;;;2.10;;
76495;SDS011;65329;52.544;4.662;2023-10-19T09:46:08;4.07;;;2.25;;
76495;SDS011;65329;52.544;4.662;2023-10-19T09:48:40;9.40;;;2.58;;
76495;SDS011;65329;52.544;4.662;2023-10-19T09:51:12;5.82;;;2.15;;
76495;SDS011;65329;52.544;4.662;2023-10-19T09:53:44;7.72;;;2.53;;
76495;SDS011;65329;52.544;4.662;2023-10-19T09:56:13;4.53;;;2.03;;
76495;SDS011;65329;52.544;4.662;2023-10-19T09:58:48;5.70;;;2.30;;
76495;SDS011;65329;52.544;4.662;2023-10-19T10:01:15;8.57;;;3.22;;
76495;SDS011;65329;52.544;4.662;2023-10-19T10:03:49;3.05;;;2.10;;
76495;SDS011;65329;52.544;4.662;2023-10-19T10:06:28;4.22;;;2.47;;
76495;SDS011;65329;52.544;4.662;2023-10-19T10:08:55;6.38;;;2.47;;
76495;SDS011;65329;52.544;4.662;2023-10-19T10:11:23;6.38;;;2.45;;
76495;SDS011;65329;52.544;4.662;2023-10-19T10:13:50;6.07;;;2.70;;
76495;SDS011;65329;52.544;4.662;2023-10-19T10:16:22;8.40;;;2.20;;
76495;SDS011;65329;52.544;4.662;2023-10-19T10:18:50;4.88;;;2.50;;
76495;SDS011;65329;52.544;4.662;2023-10-19T10:21:18;6.68;;;2.53;;
76495;SDS011;65329;52.544;4.662;2023-10-19T10:23:53;7.40;;;2.50;;
76495;SDS011;65329;52.544;4.662;2023-10-19T10:26:21;8.85;;;2.35;;
76495;SDS011;65329;52.544;4.662;2023-10-19T10:31:54;7.78;;;2.35;;
76495;SDS011;65329;52.544;4.662;2023-10-19T10:39:29;6.95;;;2.13;;
76495;SDS011;65329;52.544;4.662;2023-10-19T10:41:57;8.70;;;2.40;;
76495;SDS011;65329;52.544;4.662;2023-10-19T10:44:40;6.32;;;2.47;;
76495;SDS011;65329;52.544;4.662;2023-10-19T10:47:07;10.23;;;2.83;;
76495;SDS011;65329;52.544;4.662;2023-10-19T10:49:35;9.57;;;2.05;;
76495;SDS011;65329;52.544;4.662;2023-10-19T10:52:11;8.63;;;2.00;;
76495;SDS011;65329;52.544;4.662;2023-10-19T10:54:38;7.95;;;2.50;;
76495;SDS011;65329;52.544;4.662;2023-10-19T10:57:05;6.45;;;2.38;;
76495;SDS011;65329;52.544;4.662;2023-10-19T10:59:34;9.43;;;2.42;;
76495;SDS011;65329;52.544;4.662;2023-10-19T11:02:00;9.50;;;2.40;;
76495;SDS011;65329;52.544;4.662;2023-10-19T11:04:27;12.18;;;3.30;;
76495;SDS011;65329;52.544;4.662;2023-10-19T11:06:55;6.35;;;3.10;;
76495;SDS011;65329;52.544;4.662;2023-10-19T11:09:22;9.02;;;3.47;;
76495;SDS011;65329;52.544;4.662;2023-10-19T11:11:49;6.53;;;2.90;;
76495;SDS011;65329;52.544;4.662;2023-10-19T11:14:16;10.15;;;3.80;;
76495;SDS011;65329;52.544;4.662;2023-10-19T11:16:42;10.70;;;2.95;;
76495;SDS011;65329;52.544;4.662;2023-10-19T11:19:10;7.72;;;3.13;;
76495;SDS011;65329;52.544;4.662;2023-10-19T11:21:36;7.15;;;3.70;;
76495;SDS011;65329;52.544;4.662;2023-10-19T11:24:03;11.57;;;3.83;;
76495;SDS011;65329;52.544;4.662;2023-10-19T11:26:30;11.40;;;4.03;;
76495;SDS011;65329;52.544;4.662;2023-10-19T11:28:58;8.52;;;3.80;;
76495;SDS011;65329;52.544;4.662;2023-10-19T11:31:25;11.15;;;3.40;;
76495;SDS011;65329;52.544;4.662;2023-10-19T11:33:54;8.43;;;3.95;;
76495;SDS011;65329;52.544;4.662;2023-10-19T11:36:24;6.18;;;3.33;;
76495;SDS011;65329;52.544;4.662;2023-10-19T11:38:52;8.60;;;3.65;;
76495;SDS011;65329;52.544;4.662;2023-10-19T11:41:19;6.63;;;3.40;;
76495;SDS011;65329;52.544;4.662;2023-10-19T11:43:46;7.97;;;3.95;;
76495;SDS011;65329;52.544;4.662;2023-10-19T11:46:14;7.75;;;3.30;;
76495;SDS011;65329;52.544;4.662;2023-10-19T11:48:41;7.57;;;3.45;;
76495;SDS011;65329;52.544;4.662;2023-10-19T11:51:11;12.00;;;3.90;;
76495;SDS011;65329;52.544;4.662;2023-10-19T11:53:39;6.60;;;3.35;;
76495;SDS011;65329;52.544;4.662;2023-10-19T11:56:07;8.07;;;3.53;;
76495;SDS011;65329;52.544;4.662;2023-10-19T11:58:34;8.27;;;3.97;;
76495;SDS011;65329;52.544;4.662;2023-10-19T12:01:01;11.40;;;4.05;;
76495;SDS011;65329;52.544;4.662;2023-10-19T12:03:44;6.90;;;3.30;;
76495;SDS011;65329;52.544;4.662;2023-10-19T12:06:15;10.75;;;3.20;;
76495;SDS011;65329;52.544;4.662;2023-10-19T12:08:46;7.65;;;3.25;;
76495;SDS011;65329;52.544;4.662;2023-10-19T12:11:13;11.35;;;3.70;;
76495;SDS011;65329;52.544;4.662;2023-10-19T12:13:45;12.20;;;4.25;;
76495;SDS011;65329;52.544;4.662;2023-10-19T12:16:12;8.45;;;3.42;;
76495;SDS011;65329;52.544;4.662;2023-10-19T12:18:39;10.75;;;3.63;;
76495;SDS011;65329;52.544;4.662;2023-10-19T12:21:06;10.40;;;3.08;;
76495;SDS011;65329;52.544;4.662;2023-10-19T12:23:41;7.97;;;2.70;;
76495;SDS011;65329;52.544;4.662;2023-10-19T12:26:10;9.25;;;3.00;;
76495;SDS011;65329;52.544;4.662;2023-10-19T12:28:38;8.48;;;3.28;;
76495;SDS011;65329;52.544;4.662;2023-10-19T12:31:05;9.32;;;3.03;;
76495;SDS011;65329;52.544;4.662;2023-10-19T12:33:32;8.75;;;3.15;;
76495;SDS011;65329;52.544;4.662;2023-10-19T12:35:59;7.75;;;2.45;;
76495;SDS011;65329;52.544;4.662;2023-10-19T12:38:26;6.55;;;2.55;;
76495;SDS011;65329;52.544;4.662;2023-10-19T12:40:54;8.82;;;2.70;;
76495;SDS011;65329;52.544;4.662;2023-10-19T12:43:21;7.05;;;2.90;;
76495;SDS011;65329;52.544;4.662;2023-10-19T12:45:51;8.40;;;2.67;;
76495;SDS011;65329;52.544;4.662;2023-10-19T12:48:21;4.80;;;3.10;;
76495;SDS011;65329;52.544;4.662;2023-10-19T12:50:48;10.82;;;3.22;;
76495;SDS011;65329;52.544;4.662;2023-10-19T12:53:15;10.65;;;3.53;;
76495;SDS011;65329;52.544;4.662;2023-10-19T12:55:41;9.73;;;3.30;;
76495;SDS011;65329;52.544;4.662;2023-10-19T12:58:10;10.18;;;3.15;;
76495;SDS011;65329;52.544;4.662;2023-10-19T13:00:38;12.35;;;3.25;;
76495;SDS011;65329;52.544;4.662;2023-10-19T13:03:08;6.45;;;3.08;;
76495;SDS011;65329;52.544;4.662;2023-10-19T13:05:35;10.77;;;3.25;;
76495;SDS011;65329;52.544;4.662;2023-10-19T13:08:07;9.80;;;3.28;;
76495;SDS011;65329;52.544;4.662;2023-10-19T13:10:34;7.97;;;2.80;;
76495;SDS011;65329;52.544;4.662;2023-10-19T13:13:02;6.10;;;3.17;;
76495;SDS011;65329;52.544;4.662;2023-10-19T13:15:32;7.45;;;2.45;;
76495;SDS011;65329;52.544;4.662;2023-10-19T13:18:04;7.70;;;2.60;;
76495;SDS011;65329;52.544;4.662;2023-10-19T13:20:33;8.30;;;2.42;;
76495;SDS011;65329;52.544;4.662;2023-10-19T13:23:06;9.82;;;2.88;;
76495;SDS011;65329;52.544;4.662;2023-10-19T13:25:34;5.80;;;2.60;;
76495;SDS011;65329;52.544;4.662;2023-10-19T13:28:16;5.70;;;2.45;;
76495;SDS011;65329;52.544;4.662;2023-10-19T13:30:47;10.93;;;2.70;;
76495;SDS011;65329;52.544;4.662;2023-10-19T13:33:14;8.77;;;3.35;;
76495;SDS011;65329;52.544;4.662;2023-10-19T13:35:41;5.88;;;2.65;;
76495;SDS011;65329;52.544;4.662;2023-10-19T13:38:09;6.72;;;2.60;;
76495;SDS011;65329;52.544;4.662;2023-10-19T13:40:36;5.95;;;2.63;;
76495;SDS011;65329;52.544;4.662;2023-10-19T13:43:04;7.65;;;2.55;;
76495;SDS011;65329;52.544;4.662;2023-10-19T13:45:33;10.38;;;2.65;;
76495;SDS011;65329;52.544;4.662;2023-10-19T13:48:01;9.80;;;2.78;;
76495;SDS011;65329;52.544;4.662;2023-10-19T13:50:28;4.88;;;2.55;;
76495;SDS011;65329;52.544;4.662;2023-10-19T13:52:56;4.40;;;2.78;;
76495;SDS011;65329;52.544;4.662;2023-10-19T13:55:27;8.85;;;3.03;;
76495;SDS011;65329;52.544;4.662;2023-10-19T13:57:55;8.07;;;3.00;;
76495;SDS011;65329;52.544;4.662;2023-10-19T14:00:24;12.57;;;3.53;;
76495;SDS011;65329;52.544;4.662;2023-10-19T14:02:57;10.52;;;3.45;;
76495;SDS011;65329;52.544;4.662;2023-10-19T14:05:25;9.15;;;3.78;;
76495;SDS011;65329;52.544;4.662;2023-10-19T14:07:52;9.60;;;3.95;;
76495;SDS011;65329;52.544;4.662;2023-10-19T14:10:19;9.35;;;3.20;;
76495;SDS011;65329;52.544;4.662;2023-10-19T14:12:48;7.05;;;3.75;;
76495;SDS011;65329;52.544;4.662;2023-10-19T14:15:19;13.68;;;3.97;;
76495;SDS011;65329;52.544;4.662;2023-10-19T14:17:47;7.57;;;3.10;;
76495;SDS011;65329;52.544;4.662;2023-10-19T14:20:14;8.40;;;3.60;;
76495;SDS011;65329;52.544;4.662;2023-10-19T14:22:41;8.70;;;3.88;;
76495;SDS011;65329;52.544;4.662;2023-10-19T14:25:10;8.93;;;4.22;;
76495;SDS011;65329;52.544;4.662;2023-10-19T14:27:45;13.40;;;4.45;;
76495;SDS011;65329;52.544;4.662;2023-10-19T14:30:13;12.52;;;4.82;;
76495;SDS011;65329;52.544;4.662;2023-10-19T14:32:42;11.02;;;4.53;;
76495;SDS011;65329;52.544;4.662;2023-10-19T14:35:12;12.63;;;4.18;;
76495;SDS011;65329;52.544;4.662;2023-10-19T14:37:41;9.15;;;3.42;;
76495;SDS011;65329;52.544;4.662;2023-10-19T14:40:10;8.93;;;3.78;;
76495;SDS011;65329;52.544;4.662;2023-10-19T14:42:37;11.63;;;4.15;;
76495;SDS011;65329;52.544;4.662;2023-10-19T14:45:05;11.20;;;3.35;;
76495;SDS011;65329;52.544;4.662;2023-10-19T14:47:38;7.82;;;3.20;;
76495;SDS011;65329;52.544;4.662;2023-10-19T14:50:09;7.22;;;3.60;;
76495;SDS011;65329;52.544;4.662;2023-10-19T14:52:37;6.35;;;2.95;;
76495;SDS011;65329;52.544;4.662;2023-10-19T14:55:05;8.00;;;2.90;;
76495;SDS011;65329;52.544;4.662;2023-10-19T14:57:33;8.95;;;3.60;;
76495;SDS011;65329;52.544;4.662;2023-10-19T14:59:59;7.88;;;3.85;;
76495;SDS011;65329;52.544;4.662;2023-10-19T15:02:42;7.78;;;3.45;;
76495;SDS011;65329;52.544;4.662;2023-10-19T15:05:09;13.10;;;4.50;;
76495;SDS011;65329;52.544;4.662;2023-10-19T15:07:40;8.95;;;3.72;;
76495;SDS011;65329;52.544;4.662;2023-10-19T15:10:09;8.32;;;4.45;;
76495;SDS011;65329;52.544;4.662;2023-10-19T15:12:36;9.75;;;4.57;;
76495;SDS011;65329;52.544;4.662;2023-10-19T15:15:03;7.45;;;3.90;;
76495;SDS011;65329;52.544;4.662;2023-10-19T15:17:29;8.05;;;3.97;;